Time;durP1;ratioP1;P1;durP2;ratioP2;P2;SDS_P1;SDS_P2;PMS_P1;PMS_P2;Temp;Humidity;BMP_temperature;BMP_pressure;BME280_temperature;BME280_humidity;BME280_pressure;Samples;Min_cycle;Max_cycle;Signal;HPM_P1;HPM_P2
2023/04/22 00:01:45;;;;;;;7.55;6.80;;;18.50;62.50;;;;;;5093654;28;20278;-64
2023/04/22 00:04:33;;;;;;;6.40;5.60;;;18.50;62.20;;;;;;5093164;28;20349;-63
2023/04/22 00:07:22;;;;;;;5.90;5.38;;;18.40;62.50;;;;;;5093020;28;20219;-63
2023/04/22 00:10:11;;;;;;;7.88;5.80;;;18.40;63.10;;;;;;5093838;28;20196;-63
2023/04/22 00:12:59;;;;;;;5.57;5.07;;;18.40;62.60;;;;;;5093540;28;20231;-63
2023/04/22 00:15:48;;;;;;;6.88;5.20;;;18.30;63.10;;;;;;5093101;28;20571;-63
2023/04/22 00:18:37;;;;;;;7.25;6.15;;;18.30;62.90;;;;;;5094368;28;20239;-63
2023/04/22 00:21:26;;;;;;;7.68;5.95;;;18.30;62.80;;;;;;5093821;28;20199;-63
2023/04/22 00:24:14;;;;;;;6.97;6.18;;;18.30;63.20;;;;;;5094584;28;20220;-65
2023/04/22 00:27:02;;;;;;;6.07;5.43;;;18.20;62.70;;;;;;5097700;28;20245;-65
2023/04/22 00:29:50;;;;;;;7.18;6.53;;;18.10;62.70;;;;;;5098973;28;20666;-65
2023/04/22 00:32:39;;;;;;;8.25;6.80;;;18.10;61.70;;;;;;5098144;28;20258;-65
2023/04/22 00:35:27;;;;;;;7.85;6.10;;;18.20;62.30;;;;;;5101027;28;20219;-63
2023/04/22 00:38:15;;;;;;;7.80;6.25;;;18.20;62.20;;;;;;5102885;28;20216;-64
2023/04/22 00:41:04;;;;;;;7.63;5.35;;;18.20;61.90;;;;;;5100558;28;20257;-64
2023/04/22 00:43:53;;;;;;;6.43;5.85;;;18.30;61.80;;;;;;5101731;28;20781;-64
2023/04/22 00:46:41;;;;;;;6.63;6.00;;;18.40;61.70;;;;;;5102529;28;20247;-64
2023/04/22 00:49:31;;;;;;;8.32;6.63;;;18.30;61.80;;;;;;5101447;28;20206;-64
2023/04/22 00:52:19;;;;;;;7.47;5.80;;;18.40;61.60;;;;;;5098417;28;20278;-64
2023/04/22 00:55:08;;;;;;;6.60;5.88;;;18.40;61.20;;;;;;5093721;28;20818;-63
2023/04/22 00:58:00;;;;;;;7.57;6.57;;;18.40;61.30;;;;;;5107511;28;20282;-63
2023/04/22 01:00:48;;;;;;;7.28;6.57;;;18.30;61.10;;;;;;5113332;28;20727;-63
2023/04/22 01:03:38;;;;;;;7.80;7.00;;;18.20;73.80;;;;;;5112040;28;20196;-63
2023/04/22 01:06:30;;;;;;;7.00;6.30;;;18.30;60.80;;;;;;5112398;28;20218;-63
2023/04/22 01:09:19;;;;;;;6.25;5.65;;;18.30;61.60;;;;;;5113114;28;20195;-63
2023/04/22 01:12:07;;;;;;;7.32;6.57;;;18.30;62.60;;;;;;5112462;28;20274;-63
2023/04/22 01:14:55;;;;;;;6.18;5.45;;;18.20;62.10;;;;;;5112358;28;20215;-64
2023/04/22 01:17:45;;;;;;;6.85;6.18;;;18.10;62.00;;;;;;5112701;28;20254;-63
2023/04/22 01:20:33;;;;;;;6.53;5.93;;;18.10;62.40;;;;;;5113014;28;20277;-63
2023/04/22 01:23:23;;;;;;;7.25;6.10;;;;;;;;;;5112766;28;20705;-63
2023/04/22 01:26:11;;;;;;;9.80;6.63;;;18.10;62.00;;;;;;5120316;28;20317;-64
2023/04/22 01:29:02;;;;;;;8.30;6.00;;;18.00;62.10;;;;;;5122317;28;20215;-64
2023/04/22 01:31:50;;;;;;;5.60;5.10;;;17.90;62.80;;;;;;5111259;28;20286;-63
2023/04/22 01:34:38;;;;;;;6.93;5.97;;;17.90;62.60;;;;;;5111303;28;20219;-63
2023/04/22 01:37:26;;;;;;;7.75;6.10;;;17.80;62.30;;;;;;5098774;28;20332;-63
2023/04/22 01:40:18;;;;;;;6.93;6.32;;;17.80;62.20;;;;;;5099924;28;20236;-64
2023/04/22 01:43:07;;;;;;;8.10;5.80;;;17.80;62.30;;;;;;5092216;28;20204;-64
2023/04/22 01:45:55;;;;;;;7.32;5.55;;;17.80;62.80;;;;;;5091255;28;20200;-63
2023/04/22 01:48:49;;;;;;;7.60;6.43;;;17.70;62.70;;;;;;5092225;28;20282;-63
2023/04/22 01:51:37;;;;;;;7.78;6.50;;;17.70;62.50;;;;;;5091709;28;20228;-64
2023/04/22 01:54:25;;;;;;;9.18;6.30;;;17.70;62.50;;;;;;5092008;28;20659;-63
2023/04/22 01:57:15;;;;;;;8.85;6.53;;;17.80;62.70;;;;;;5091405;28;20277;-63
2023/04/22 02:00:04;;;;;;;6.55;5.78;;;17.90;62.40;;;;;;5091820;28;20268;-64
2023/04/22 02:02:52;;;;;;;6.70;6.03;;;18.00;62.30;;;;;;5091587;28;20246;-63
2023/04/22 02:05:41;;;;;;;8.55;6.45;;;18.10;62.00;;;;;;5090407;28;20789;-63
2023/04/22 02:08:29;;;;;;;8.15;6.20;;;18.10;62.00;;;;;;5091505;28;20838;-63
2023/04/22 02:11:17;;;;;;;9.45;7.28;;;18.10;61.70;;;;;;5092048;28;20594;-64
2023/04/22 02:14:06;;;;;;;6.72;6.22;;;18.10;61.60;;;;;;5090743;28;20766;-64
2023/04/22 02:16:54;;;;;;;7.53;6.78;;;18.20;61.60;;;;;;5090475;28;20663;-63
2023/04/22 02:19:42;;;;;;;8.27;6.95;;;18.20;61.30;;;;;;5091501;28;20337;-63
2023/04/22 02:22:31;;;;;;;6.95;6.25;;;18.20;61.20;;;;;;5090065;28;20545;-63
2023/04/22 02:25:20;;;;;;;8.05;6.57;;;18.20;61.10;;;;;;5090602;28;20216;-64
2023/04/22 02:28:08;;;;;;;7.93;6.82;;;18.20;61.10;;;;;;5092066;28;20218;-63
2023/04/22 02:30:57;;;;;;;7.13;6.35;;;18.10;61.10;;;;;;5095589;28;20753;-64
2023/04/22 02:33:45;;;;;;;8.73;7.25;;;18.10;61.00;;;;;;5095377;28;20219;-63
2023/04/22 02:36:34;;;;;;;7.97;6.55;;;18.10;61.40;;;;;;5095027;28;20325;-63
2023/04/22 02:39:22;;;;;;;7.95;7.13;;;18.10;61.70;;;;;;5094594;28;20814;-64
2023/04/22 02:42:10;;;;;;;6.70;6.10;;;17.90;62.10;;;;;;5093431;28;20708;-64
2023/04/22 02:44:58;;;;;;;7.57;6.20;;;17.90;62.80;;;;;;5095246;28;20272;-64
2023/04/22 02:47:47;;;;;;;7.40;6.70;;;17.80;62.50;;;;;;5095608;28;20251;-64
2023/04/22 02:50:35;;;;;;;9.15;6.50;;;17.70;62.80;;;;;;5095064;28;20196;-63
2023/04/22 02:53:23;;;;;;;6.32;5.32;;;17.90;76.30;;;;;;5094878;28;20244;-63
2023/04/22 02:56:12;;;;;;;8.15;6.38;;;17.60;63.00;;;;;;5096163;28;20232;-63
2023/04/22 02:59:00;;;;;;;8.63;6.75;;;17.60;62.80;;;;;;5115003;28;20191;-63
2023/04/22 03:01:48;;;;;;;7.93;6.90;;;17.60;62.70;;;;;;5115160;28;20280;-62
2023/04/22 03:04:37;;;;;;;7.38;6.68;;;17.50;63.20;;;;;;5115386;28;20227;-63
2023/04/22 03:07:26;;;;;;;7.30;6.50;;;17.50;63.30;;;;;;5114135;28;20695;-63
2023/04/22 03:10:14;;;;;;;8.18;6.18;;;17.40;63.60;;;;;;5114998;28;20200;-63
2023/04/22 03:13:02;;;;;;;6.38;5.78;;;17.40;63.30;;;;;;5115127;28;20333;-62
2023/04/22 03:15:50;;;;;;;7.25;6.20;;;17.30;63.50;;;;;;5113786;28;20200;-63
2023/04/22 03:18:38;;;;;;;8.95;6.75;;;17.40;63.60;;;;;;5115361;28;20886;-63
2023/04/22 03:21:28;;;;;;;7.93;7.13;;;17.30;63.00;;;;;;5113822;28;20259;-64
2023/04/22 03:24:16;;;;;;;9.23;7.07;;;17.30;62.50;;;;;;5114468;28;20219;-63
2023/04/22 03:27:04;;;;;;;7.72;6.93;;;17.30;62.80;;;;;;5115688;28;20286;-64
2023/04/22 03:29:52;;;;;;;8.10;6.43;;;17.30;62.80;;;;;;5114894;28;20289;-64
2023/04/22 03:32:40;;;;;;;8.75;6.95;;;17.40;62.70;;;;;;5113110;28;20295;-64
2023/04/22 03:35:29;;;;;;;8.02;7.18;;;17.40;62.30;;;;;;5113918;28;20284;-64
2023/04/22 03:38:18;;;;;;;7.40;6.60;;;17.40;62.20;;;;;;5096143;28;20195;-63
2023/04/22 03:41:06;;;;;;;9.90;6.80;;;17.50;62.10;;;;;;5093800;28;20207;-64
2023/04/22 03:43:54;;;;;;;9.98;7.43;;;17.50;62.20;;;;;;5094346;28;20692;-63
2023/04/22 03:46:42;;;;;;;10.30;7.65;;;17.50;61.90;;;;;;5094946;28;20627;-64
2023/04/22 03:49:31;;;;;;;7.43;6.70;;;17.40;62.10;;;;;;5101480;28;20226;-63
2023/04/22 03:52:19;;;;;;;6.97;6.38;;;17.30;62.10;;;;;;5101234;28;20212;-63
2023/04/22 03:55:09;;;;;;;7.63;5.72;;;17.40;62.60;;;;;;5095301;28;20266;-63
2023/04/22 03:57:58;;;;;;;7.45;6.68;;;17.30;63.80;;;;;;5110050;28;20615;-64
2023/04/22 04:00:46;;;;;;;7.05;5.85;;;17.30;63.20;;;;;;5119234;28;20203;-64
2023/04/22 04:03:34;;;;;;;7.72;6.70;;;17.50;76.40;;;;;;5113825;28;20248;-64
2023/04/22 04:06:22;;;;;;;6.95;6.25;;;17.20;63.10;;;;;;5115584;28;20195;-64
2023/04/22 04:09:11;;;;;;;7.20;5.93;;;17.20;63.40;;;;;;5116567;28;20264;-64
2023/04/22 04:12:00;;;;;;;7.97;6.50;;;17.20;63.30;;;;;;5117676;28;20226;-64
2023/04/22 04:14:48;;;;;;;7.95;6.13;;;17.20;63.30;;;;;;5123278;28;20244;-64
2023/04/22 04:17:36;;;;;;;6.57;5.78;;;17.10;63.50;;;;;;5131837;28;20223;-64
2023/04/22 04:20:24;;;;;;;6.57;5.95;;;17.10;63.50;;;;;;5132288;28;20252;-64
2023/04/22 04:23:12;;;;;;;6.75;6.13;;;17.00;64.00;;;;;;5132530;28;20234;-64
2023/04/22 04:26:01;;;;;;;6.60;5.90;;;17.00;63.20;;;;;;5131291;28;20639;-65
2023/04/22 04:28:51;;;;;;;13.35;6.85;;;17.00;63.90;;;;;;5130945;28;20262;-64
2023/04/22 04:31:39;;;;;;;8.95;6.70;;;16.90;64.10;;;;;;5132739;28;20195;-65
2023/04/22 04:34:27;;;;;;;7.82;6.40;;;16.90;64.10;;;;;;5131881;28;20234;-64
2023/04/22 04:37:16;;;;;;;6.90;6.30;;;16.90;63.60;;;;;;5133068;28;20203;-64
2023/04/22 04:40:06;;;;;;;8.05;6.63;;;16.90;63.30;;;;;;5133802;28;20199;-64
2023/04/22 04:42:54;;;;;;;8.43;6.65;;;16.90;63.10;;;;;;5131041;28;20214;-64
2023/04/22 04:45:45;;;;;;;9.27;6.88;;;17.00;63.40;;;;;;5132489;28;20223;-65
2023/04/22 04:48:35;;;;;;;8.52;7.45;;;17.00;63.20;;;;;;5132389;28;20274;-64
2023/04/22 04:51:24;;;;;;;9.40;7.30;;;17.10;63.10;;;;;;5132399;28;20203;-64
2023/04/22 04:54:12;;;;;;;9.13;6.78;;;17.20;63.20;;;;;;5132652;28;20207;-64
2023/04/22 04:57:00;;;;;;;7.43;6.18;;;17.20;62.80;;;;;;5123617;28;20227;-64
2023/04/22 04:59:48;;;;;;;7.50;6.68;;;17.20;63.00;;;;;;5104602;28;20279;-64
2023/04/22 05:02:38;;;;;;;8.48;6.53;;;17.20;62.80;;;;;;5092097;28;20196;-64
2023/04/22 05:05:26;;;;;;;15.07;7.68;;;17.20;62.80;;;;;;5092744;28;20838;-64
2023/04/22 05:08:14;;;;;;;7.78;6.85;;;17.10;62.80;;;;;;5092758;28;20421;-64
2023/04/22 05:11:02;;;;;;;8.02;7.15;;;17.10;63.50;;;;;;5092785;28;20243;-64
2023/04/22 05:13:50;;;;;;;6.10;5.60;;;17.10;63.80;;;;;;5093086;28;20265;-64
2023/04/22 05:16:38;;;;;;;8.00;6.20;;;17.10;64.00;;;;;;5092689;28;20211;-64
2023/04/22 05:19:27;;;;;;;7.75;6.65;;;17.10;63.70;;;;;;5092214;28;20207;-64
2023/04/22 05:22:16;;;;;;;6.97;5.78;;;17.00;63.50;;;;;;5092567;28;20281;-64
2023/04/22 05:25:05;;;;;;;8.27;6.63;;;17.00;64.10;;;;;;5092674;28;20216;-65
2023/04/22 05:27:53;;;;;;;8.50;6.50;;;17.00;63.80;;;;;;5092445;28;20328;-64
2023/04/22 05:30:41;;;;;;;7.85;6.60;;;17.00;63.50;;;;;;5091987;28;20207;-64
2023/04/22 05:33:29;;;;;;;6.65;5.53;;;16.60;69.90;;;;;;5090822;28;20203;-64
2023/04/22 05:36:19;;;;;;;7.63;5.80;;;17.00;64.20;;;;;;5092487;28;20283;-64
2023/04/22 05:39:07;;;;;;;7.10;5.75;;;16.70;63.90;;;;;;5091854;28;20203;-64
2023/04/22 05:41:55;;;;;;;10.40;6.82;;;16.90;64.30;;;;;;5091443;28;20192;-64
2023/04/22 05:44:43;;;;;;;10.80;7.07;;;16.90;63.70;;;;;;5092306;28;20252;-64
2023/04/22 05:47:31;;;;;;;12.02;8.05;;;16.90;64.30;;;;;;5091810;28;20285;-64
2023/04/22 05:50:19;;;;;;;9.40;7.05;;;16.90;63.80;;;;;;5091383;28;20303;-64
2023/04/22 05:53:11;;;;;;;8.32;6.72;;;17.00;63.70;;;;;;5092368;28;20196;-64
2023/04/22 05:55:59;;;;;;;8.23;6.32;;;17.00;63.30;;;;;;5092366;28;20204;-64
2023/04/22 05:58:47;;;;;;;7.97;6.88;;;17.10;63.90;;;;;;5092311;28;20314;-64
2023/04/22 06:01:36;;;;;;;9.77;6.75;;;17.20;63.60;;;;;;5100165;28;20239;-64
2023/04/22 06:04:24;;;;;;;7.15;6.45;;;17.30;63.30;;;;;;5115490;28;20291;-64
2023/04/22 06:07:12;;;;;;;7.43;6.65;;;17.30;62.90;;;;;;5117550;28;20228;-65
2023/04/22 06:10:02;;;;;;;11.18;7.35;;;17.40;63.00;;;;;;5116525;28;20716;-64
2023/04/22 06:12:52;;;;;;;8.75;6.82;;;17.40;62.70;;;;;;5123906;28;20300;-64
2023/04/22 06:15:40;;;;;;;7.47;6.75;;;17.40;62.90;;;;;;5125949;28;20260;-64
2023/04/22 06:18:28;;;;;;;6.60;5.55;;;17.50;62.90;;;;;;5117901;28;20341;-64
2023/04/22 06:21:16;;;;;;;9.90;6.95;;;17.50;63.50;;;;;;5116929;28;20284;-64
2023/04/22 06:24:05;;;;;;;10.52;6.90;;;17.60;63.10;;;;;;5116219;28;20240;-64
2023/04/22 06:26:55;;;;;;;7.80;6.80;;;17.50;62.90;;;;;;5116351;28;20223;-64
2023/04/22 06:29:43;;;;;;;9.23;7.07;;;17.50;63.30;;;;;;5116785;28;20215;-63
2023/04/22 06:32:31;;;;;;;8.32;6.30;;;17.50;63.30;;;;;;5115024;28;20274;-64
2023/04/22 06:35:20;;;;;;;7.38;6.60;;;17.50;64.00;;;;;;5115550;28;20262;-64
2023/04/22 06:38:08;;;;;;;9.98;7.57;;;17.50;63.80;;;;;;5115577;28;20325;-64
2023/04/22 06:40:56;;;;;;;7.88;6.90;;;17.50;63.90;;;;;;5115081;28;20191;-64
2023/04/22 06:43:45;;;;;;;6.65;5.93;;;17.50;63.90;;;;;;5114207;28;20250;-64
2023/04/22 06:46:33;;;;;;;9.65;7.18;;;17.50;64.10;;;;;;5115167;28;20253;-64
2023/04/22 06:49:21;;;;;;;7.63;6.80;;;17.50;64.20;;;;;;5115323;28;20722;-64
2023/04/22 06:52:09;;;;;;;7.00;6.00;;;17.50;64.00;;;;;;5114610;28;20336;-64
2023/04/22 06:54:57;;;;;;;9.65;6.88;;;17.50;64.20;;;;;;5114967;28;20249;-64
2023/04/22 06:57:45;;;;;;;7.13;6.43;;;17.50;64.40;;;;;;5100473;28;20207;-64
2023/04/22 07:00:35;;;;;;;7.50;6.78;;;17.50;65.10;;;;;;5094747;28;20283;-64
2023/04/22 07:03:23;;;;;;;8.70;6.35;;;;;;;;;;5092920;28;20200;-64
2023/04/22 07:06:12;;;;;;;7.47;6.55;;;17.50;64.40;;;;;;5094429;28;20191;-64
2023/04/22 07:09:00;;;;;;;8.02;6.70;;;17.50;64.80;;;;;;5094253;28;20193;-64
2023/04/22 07:11:48;;;;;;;7.82;7.03;;;17.50;64.50;;;;;;5093821;28;20692;-64
2023/04/22 07:14:37;;;;;;;7.53;6.72;;;17.60;64.90;;;;;;5093141;28;20265;-64
2023/04/22 07:17:26;;;;;;;6.60;5.63;;;17.60;64.80;;;;;;5093667;28;20199;-64
2023/04/22 07:20:14;;;;;;;7.18;6.47;;;17.80;65.10;;;;;;5093843;28;20204;-64
2023/04/22 07:23:02;;;;;;;6.93;6.20;;;17.80;64.80;;;;;;5101411;28;20235;-64
2023/04/22 07:25:51;;;;;;;10.85;6.68;;;17.80;64.20;;;;;;5106034;28;20341;-64
2023/04/22 07:28:39;;;;;;;10.25;7.70;;;17.90;64.70;;;;;;5106258;28;20224;-64
2023/04/22 07:31:27;;;;;;;9.57;6.63;;;17.90;64.50;;;;;;5108595;28;20215;-64
2023/04/22 07:34:17;;;;;;;8.18;7.00;;;18.00;64.70;;;;;;5106622;28;20244;-64
2023/04/22 07:37:06;;;;;;;7.75;6.95;;;18.00;64.50;;;;;;5096920;28;20231;-65
2023/04/22 07:39:54;;;;;;;7.65;6.85;;;18.10;64.50;;;;;;5092695;28;20280;-64
2023/04/22 07:42:42;;;;;;;7.30;6.60;;;18.10;64.20;;;;;;5092361;28;20277;-65
2023/04/22 07:45:30;;;;;;;8.02;6.15;;;18.10;64.20;;;;;;5092561;28;20220;-66
2023/04/22 07:48:18;;;;;;;9.23;8.23;;;18.10;64.90;;;;;;5092598;28;20741;-65
2023/04/22 07:51:08;;;;;;;11.40;6.88;;;18.20;64.40;;;;;;5094246;28;20706;-64
2023/04/22 07:53:56;;;;;;;9.68;6.65;;;18.20;64.90;;;;;;5093587;28;20216;-65
2023/04/22 07:56:44;;;;;;;9.05;6.72;;;18.20;65.10;;;;;;5098537;28;20203;-65
2023/04/22 07:59:32;;;;;;;7.25;6.30;;;18.20;65.30;;;;;;5114425;28;20282;-64
2023/04/22 08:02:20;;;;;;;8.05;6.13;;;18.20;65.20;;;;;;5113407;28;20200;-64
2023/04/22 08:05:09;;;;;;;7.85;5.45;;;18.20;65.70;;;;;;5114257;28;20227;-64
2023/04/22 08:07:58;;;;;;;7.78;6.88;;;18.20;65.60;;;;;;5112108;28;20191;-64
2023/04/22 08:10:47;;;;;;;9.23;6.75;;;18.20;65.60;;;;;;5113557;28;20223;-65
2023/04/22 08:13:35;;;;;;;11.05;7.10;;;18.20;77.70;;;;;;5113219;28;20199;-65
2023/04/22 08:16:23;;;;;;;9.45;6.72;;;18.30;65.80;;;;;;5111943;28;20320;-64
2023/04/22 08:19:11;;;;;;;9.43;6.32;;;18.30;65.90;;;;;;5113137;28;20199;-65
2023/04/22 08:22:00;;;;;;;8.10;7.22;;;18.30;66.00;;;;;;5111894;28;20198;-65
2023/04/22 08:24:49;;;;;;;9.38;7.30;;;18.30;66.10;;;;;;5113664;28;20644;-65
2023/04/22 08:27:37;;;;;;;7.03;6.32;;;18.30;65.90;;;;;;5112394;28;20203;-65
2023/04/22 08:30:25;;;;;;;7.65;6.32;;;18.40;66.10;;;;;;5113196;28;20637;-65
2023/04/22 08:33:14;;;;;;;8.52;6.68;;;18.40;66.20;;;;;;5112794;28;20207;-65
2023/04/22 08:36:03;;;;;;;9.88;6.72;;;18.50;65.60;;;;;;5112339;28;20223;-64
2023/04/22 08:38:51;;;;;;;8.43;6.15;;;18.60;66.20;;;;;;5116042;28;20272;-64
2023/04/22 08:41:43;;;;;;;7.43;6.50;;;18.70;66.20;;;;;;5114047;28;20255;-65
2023/04/22 08:44:32;;;;;;;6.80;6.10;;;18.70;66.20;;;;;;5113315;28;20359;-65
2023/04/22 08:47:21;;;;;;;6.60;5.95;;;18.80;66.20;;;;;;5112090;28;20190;-65
2023/04/22 08:50:10;;;;;;;11.10;6.90;;;18.90;66.40;;;;;;5113137;28;20247;-65
2023/04/22 08:52:58;;;;;;;9.25;6.32;;;18.90;66.20;;;;;;5111721;28;20680;-65
2023/04/22 08:55:48;;;;;;;7.15;5.53;;;19.00;66.30;;;;;;5112635;28;20601;-64
2023/04/22 08:58:39;;;;;;;7.35;6.65;;;19.00;66.30;;;;;;5092932;28;20673;-65
2023/04/22 09:01:30;;;;;;;6.70;5.82;;;19.10;66.30;;;;;;5091342;28;20228;-65
2023/04/22 09:04:19;;;;;;;8.45;5.45;;;19.10;66.30;;;;;;5091786;28;20308;-64
2023/04/22 09:07:08;;;;;;;7.15;6.45;;;19.20;66.30;;;;;;5091718;28;20208;-65
2023/04/22 09:09:56;;;;;;;6.00;5.40;;;19.20;66.30;;;;;;5091500;28;20269;-65
2023/04/22 09:12:44;;;;;;;7.00;5.53;;;19.20;66.10;;;;;;5091035;28;20196;-65
2023/04/22 09:15:34;;;;;;;7.68;5.68;;;19.30;66.20;;;;;;5091082;28;20231;-65
2023/04/22 09:18:22;;;;;;;10.43;6.05;;;19.20;65.90;;;;;;5091786;28;20228;-64
2023/04/22 09:21:10;;;;;;;8.48;6.03;;;19.20;65.90;;;;;;5092498;28;20281;-65
2023/04/22 09:24:01;;;;;;;6.82;5.57;;;19.20;65.90;;;;;;5091592;28;20216;-65
2023/04/22 09:26:49;;;;;;;5.65;4.88;;;19.20;66.10;;;;;;5091424;28;20200;-65
2023/04/22 09:29:37;;;;;;;4.72;4.32;;;19.20;66.00;;;;;;5090981;28;20279;-64
2023/04/22 09:32:27;;;;;;;5.65;5.05;;;19.30;66.20;;;;;;5090838;28;20223;-64
2023/04/22 09:35:16;;;;;;;5.10;4.65;;;19.30;66.20;;;;;;5091036;28;20226;-65
2023/04/22 09:38:06;;;;;;;5.97;5.35;;;19.30;66.10;;;;;;5091082;28;20200;-64
2023/04/22 09:40:54;;;;;;;4.03;3.72;;;19.30;66.10;;;;;;5091178;28;20611;-64
2023/04/22 09:43:43;;;;;;;5.05;4.55;;;19.30;78.20;;;;;;5090204;28;20211;-64
2023/04/22 09:46:32;;;;;;;5.60;5.10;;;19.40;66.10;;;;;;5091221;28;20192;-65
2023/04/22 09:49:22;;;;;;;5.35;4.85;;;19.50;66.00;;;;;;5090501;28;20209;-64
2023/04/22 09:52:10;;;;;;;6.40;5.50;;;19.60;65.90;;;;;;5091082;28;20269;-65
2023/04/22 09:54:58;;;;;;;4.90;4.50;;;19.70;65.70;;;;;;5091118;28;20310;-65
2023/04/22 09:57:46;;;;;;;6.70;5.47;;;19.80;65.50;;;;;;5105165;28;20686;-64
2023/04/22 10:00:39;;;;;;;5.03;4.50;;;19.90;65.20;;;;;;5112390;28;20207;-65
2023/04/22 10:03:27;;;;;;;6.45;5.45;;;20.10;70.40;;;;;;5112222;28;20206;-65
2023/04/22 10:06:16;;;;;;;5.85;5.35;;;20.10;64.40;;;;;;5133400;22;20718;-63
2023/04/22 10:09:05;;;;;;;6.22;5.28;;;20.20;65.00;;;;;;5113031;28;20207;-63
2023/04/22 10:11:57;;;;;;;6.03;5.15;;;20.30;64.90;;;;;;5113086;28;20246;-63
2023/04/22 10:14:46;;;;;;;6.07;5.43;;;20.40;64.10;;;;;;5113570;28;20223;-64
2023/04/22 10:17:37;;;;;;;5.72;5.15;;;20.40;64.50;;;;;;5112952;28;20191;-64
2023/04/22 10:20:28;;;;;;;5.15;4.75;;;20.40;64.40;;;;;;5112997;28;20237;-63
2023/04/22 10:23:20;;;;;;;5.03;4.60;;;20.50;64.50;;;;;;5112997;28;20196;-64
2023/04/22 10:26:09;;;;;;;4.78;4.38;;;20.50;63.90;;;;;;5114125;28;20722;-64
2023/04/22 10:28:57;;;;;;;4.97;4.57;;;20.50;64.50;;;;;;5113607;28;20203;-64
2023/04/22 10:31:53;;;;;;;5.22;4.72;;;20.60;64.50;;;;;;5113981;28;20211;-63
2023/04/22 10:34:41;;;;;;;6.25;5.40;;;20.60;63.30;;;;;;5112259;28;20222;-64
2023/04/22 10:37:29;;;;;;;5.00;4.50;;;20.60;63.90;;;;;;5093568;28;20192;-63
2023/04/22 10:40:22;;;;;;;5.60;5.10;;;20.60;64.40;;;;;;5092356;28;20692;-63
2023/04/22 10:43:12;;;;;;;4.57;4.15;;;20.60;64.30;;;;;;5093533;28;20285;-64
2023/04/22 10:46:01;;;;;;;5.38;4.05;;;20.60;63.60;;;;;;5092598;28;20248;-63
2023/04/22 10:48:50;;;;;;;5.38;4.88;;;20.60;64.20;;;;;;5092666;28;20211;-63
2023/04/22 10:51:39;;;;;;;5.32;4.65;;;20.60;64.20;;;;;;5095939;28;20216;-64
2023/04/22 10:54:57;;;;;;;4.70;4.25;;;20.80;76.70;;;;;;5096967;28;20224;-63
2023/04/22 10:57:48;;;;;;;4.63;4.22;;;20.60;64.30;;;;;;5111362;28;20691;-63
2023/04/22 11:00:41;;;;;;;5.78;4.65;;;20.60;64.20;;;;;;5116770;28;20210;-63
2023/04/22 11:03:41;;;;;;;6.00;5.00;;;20.60;64.30;;;;;;5115393;28;20262;-64
2023/04/22 11:06:29;;;;;;;5.05;4.65;;;20.60;64.50;;;;;;5115262;28;20672;-63
2023/04/22 11:09:18;;;;;;;5.40;4.90;;;20.60;64.80;;;;;;5116037;28;20199;-64
2023/04/22 11:12:43;;;;;;;4.80;4.28;;;20.60;64.80;;;;;;5115964;28;20308;-63
2023/04/22 11:15:35;;;;;;;4.35;3.95;;;20.60;64.90;;;;;;5115552;28;20776;-63
2023/04/22 11:18:25;;;;;;;5.32;4.82;;;20.50;64.60;;;;;;5117040;28;20206;-64
2023/04/22 11:21:14;;;;;;;4.38;4.07;;;20.50;64.90;;;;;;5115654;28;20198;-64
2023/04/22 11:24:05;;;;;;;4.53;4.13;;;20.50;64.90;;;;;;5116920;28;20243;-64
2023/04/22 11:26:57;;;;;;;4.90;4.40;;;20.50;64.00;;;;;;5116660;28;20210;-64
2023/04/22 11:29:59;;;;;;;5.97;4.68;;;20.50;64.60;;;;;;5116129;28;20199;-63
2023/04/22 11:32:50;;;;;;;4.60;4.20;;;20.60;64.90;;;;;;5115153;28;20215;-67
2023/04/22 11:35:39;;;;;;;4.22;3.92;;;20.70;64.20;;;;;;5115787;28;20222;-64
2023/04/22 11:38:27;;;;;;;5.00;4.50;;;20.70;64.90;;;;;;5115661;28;20687;-64
2023/04/22 11:41:20;;;;;;;6.90;4.13;;;20.80;64.50;;;;;;5116073;28;20196;-64
2023/04/22 11:44:09;;;;;;;4.85;4.45;;;20.90;64.70;;;;;;5114962;28;20283;-63
2023/04/22 11:46:57;;;;;;;4.70;4.40;;;21.00;63.90;;;;;;5116390;28;20678;-64
2023/04/22 11:49:57;;;;;;;4.70;4.30;;;21.10;64.40;;;;;;5115699;28;20248;-64
2023/04/22 11:52:49;;;;;;;4.93;4.43;;;21.10;64.00;;;;;;5114546;28;20215;-64
2023/04/22 11:55:39;;;;;;;5.05;4.55;;;21.30;63.30;;;;;;5115718;28;20234;-64
2023/04/22 11:58:28;;;;;;;4.40;4.03;;;21.20;63.60;;;;;;5095078;28;20604;-64
2023/04/22 12:01:17;;;;;;;4.53;4.13;;;21.30;63.90;;;;;;5096144;28;20275;-64
2023/04/22 12:04:07;;;;;;;4.40;4.00;;;21.30;63.60;;;;;;5095904;28;20207;-64
2023/04/22 12:06:57;;;;;;;5.35;4.32;;;21.40;63.20;;;;;;5096632;28;20227;-64
2023/04/22 12:09:45;;;;;;;4.82;4.43;;;21.10;63.60;;;;;;5095209;28;20196;-64
2023/04/22 12:12:35;;;;;;;6.47;4.30;;;21.40;63.20;;;;;;5095935;28;20975;-64
2023/04/22 12:15:24;;;;;;;4.40;4.00;;;21.40;63.40;;;;;;5095643;28;20223;-63
2023/04/22 12:18:13;;;;;;;4.30;3.90;;;21.40;64.00;;;;;;5095276;28;20200;-63
2023/04/22 12:21:08;;;;;;;5.55;4.30;;;21.40;64.00;;;;;;5095647;28;20208;-63
2023/04/22 12:23:59;;;;;;;4.65;4.25;;;21.40;63.90;;;;;;5095329;28;20192;-64
2023/04/22 12:26:47;;;;;;;4.32;3.92;;;21.40;63.30;;;;;;5096294;28;20204;-63
2023/04/22 12:29:36;;;;;;;4.30;3.95;;;21.40;64.10;;;;;;5095722;28;20586;-63
2023/04/22 12:32:26;;;;;;;5.00;4.60;;;21.50;64.30;;;;;;5094255;28;20293;-65
2023/04/22 12:35:14;;;;;;;4.22;3.83;;;21.40;63.50;;;;;;5095883;28;20216;-64
2023/04/22 12:38:03;;;;;;;4.60;4.07;;;21.40;64.90;;;;;;5095596;28;20206;-64
2023/04/22 12:40:52;;;;;;;5.07;4.50;;;21.40;64.30;;;;;;5094810;28;20235;-63
2023/04/22 12:43:41;;;;;;;4.10;3.70;;;21.40;64.40;;;;;;5094831;28;20285;-64
2023/04/22 12:46:29;;;;;;;4.70;4.30;;;21.30;63.80;;;;;;5095102;28;20765;-65
2023/04/22 12:49:17;;;;;;;4.13;3.83;;;21.30;64.50;;;;;;5094557;28;20223;-64
2023/04/22 12:52:06;;;;;;;4.30;3.90;;;21.30;64.60;;;;;;5094820;28;20348;-64
2023/04/22 12:54:54;;;;;;;4.10;3.80;;;21.30;64.30;;;;;;5095215;28;20220;-63
2023/04/22 12:57:45;;;;;;;3.67;3.38;;;21.30;64.90;;;;;;5108227;28;20276;-64
2023/04/22 13:00:33;;;;;;;4.75;4.35;;;21.30;65.00;;;;;;5115220;28;20675;-64
2023/04/22 13:03:21;;;;;;;4.55;4.15;;;21.20;65.80;;;;;;5115124;28;20204;-63
2023/04/22 13:06:10;;;;;;;4.63;4.22;;;21.20;64.50;;;;;;5113898;28;20234;-64
2023/04/22 13:08:58;;;;;;;4.38;4.00;;;21.20;65.10;;;;;;5116112;28;20191;-64
2023/04/22 13:11:48;;;;;;;4.30;4.00;;;21.20;65.20;;;;;;5114261;28;20256;-64
2023/04/22 13:14:37;;;;;;;4.05;3.65;;;21.20;80.80;;;;;;5114894;28;20224;-64
2023/04/22 13:17:26;;;;;;;4.88;3.78;;;21.20;65.10;;;;;;5115573;28;20560;-64
2023/04/22 13:20:15;;;;;;;4.50;4.10;;;21.20;65.10;;;;;;5114030;28;20206;-64
2023/04/22 13:23:04;;;;;;;4.38;3.97;;;21.20;65.10;;;;;;5112893;28;20194;-64
2023/04/22 13:25:52;;;;;;;4.10;3.75;;;21.20;64.50;;;;;;5113053;28;20219;-64
2023/04/22 13:28:41;;;;;;;4.53;4.10;;;21.20;65.10;;;;;;5115049;28;20667;-64
2023/04/22 13:31:30;;;;;;;5.18;4.78;;;21.20;65.10;;;;;;5114649;28;20199;-63
2023/04/22 13:34:19;;;;;;;4.07;3.67;;;21.40;71.00;;;;;;5113932;28;20219;-63
2023/04/22 13:37:07;;;;;;;3.92;3.53;;;21.20;65.00;;;;;;5114505;28;20195;-63
2023/04/22 13:39:55;;;;;;;4.40;4.00;;;21.20;65.10;;;;;;5114732;28;20278;-63
2023/04/22 13:42:44;;;;;;;7.38;4.22;;;21.30;65.10;;;;;;5114392;28;20207;-64
2023/04/22 13:45:32;;;;;;;4.72;4.30;;;21.30;64.50;;;;;;5114737;28;20223;-64
2023/04/22 13:48:21;;;;;;;4.03;3.72;;;21.30;65.20;;;;;;5114726;28;20256;-64
2023/04/22 13:51:10;;;;;;;4.47;4.07;;;21.30;65.10;;;;;;5115279;28;20203;-66
2023/04/22 13:53:58;;;;;;;4.80;4.40;;;21.30;65.10;;;;;;5114452;28;20211;-64
2023/04/22 13:56:46;;;;;;;4.20;3.90;;;21.30;64.50;;;;;;5107549;28;20203;-64
2023/04/22 13:59:35;;;;;;;5.63;5.13;;;21.30;65.20;;;;;;5094901;28;20203;-64
2023/04/22 14:02:24;;;;;;;4.68;4.28;;;21.30;65.20;;;;;;5094234;28;20310;-64
2023/04/22 14:05:13;;;;;;;4.80;4.32;;;21.30;64.60;;;;;;5093403;28;20324;-64
2023/04/22 14:08:02;;;;;;;4.55;4.15;;;21.40;65.20;;;;;;5094248;28;20612;-64
2023/04/22 14:10:50;;;;;;;4.35;4.05;;;21.50;64.90;;;;;;5093417;28;20261;-64
2023/04/22 14:13:39;;;;;;;4.40;4.00;;;21.70;64.90;;;;;;5094419;28;20219;-64
2023/04/22 14:16:27;;;;;;;4.80;3.75;;;21.90;63.80;;;;;;5093366;28;20234;-64
2023/04/22 14:19:15;;;;;;;4.35;3.95;;;21.90;64.40;;;;;;5093577;28;20192;-64
2023/04/22 14:22:05;;;;;;;3.88;3.67;;;21.90;64.40;;;;;;5093155;28;20196;-64
2023/04/22 14:24:54;;;;;;;5.43;4.22;;;21.80;63.90;;;;;;5094976;28;20227;-64
2023/04/22 14:27:42;;;;;;;4.68;4.28;;;21.80;64.60;;;;;;5097412;28;20207;-64
2023/04/22 14:30:31;;;;;;;4.30;3.95;;;21.70;64.50;;;;;;5097499;28;20207;-64
2023/04/22 14:33:20;;;;;;;4.13;3.83;;;21.80;64.70;;;;;;5095949;28;20212;-64
2023/04/22 14:36:08;;;;;;;4.35;3.95;;;21.70;64.00;;;;;;5097570;28;20224;-64
2023/04/22 14:38:58;;;;;;;4.15;3.75;;;21.70;64.60;;;;;;5097092;28;20203;-64
2023/04/22 14:41:46;;;;;;;4.18;3.88;;;21.80;64.60;;;;;;5096792;28;20200;-63